Terminal Aerodrome Forecast
Issued by NWS Topeka, KS

Home | Current Version | Previous Version | Graphics & Text | Print | Product List | Glossary On
Versions: 1 2 3 4 5 6 7 8 9 10 11 12 13 14 15 16
000
FTUS43 KTOP 301759 CCA
TAFTOP
TAF COR
KTOP 301759Z 3018/3118 07006KT P6SM VCTS BKN020CB
      TEMPO 3019/3022 6SM TSRA BKN020CB
     FM302300 04004KT P6SM SCT020
     FM311100 04004KT P6SM VCTS SCT010 BKN050CB=

USA.gov is the U.S. government's official web portal to all federal, state and local government web resources and services.